Time;durP1;ratioP1;P1;durP2;ratioP2;P2;SDS_P1;SDS_P2;PMS_P1;PMS_P2;Temp;Humidity;BMP_temperature;BMP_pressure;BME280_temperature;BME280_humidity;BME280_pressure;Samples;Min_cycle;Max_cycle;Signal;HPM_P1;HPM_P2
2022/08/28 04:00:39;;;;;;;2.30;1.03;;;14.40;99.90;;;;;;5834401;23;20937;-74
2022/08/28 04:03:11;;;;;;;1.57;1.10;;;14.40;99.90;;;;;;4972602;28;20466;-74
2022/08/28 04:05:38;;;;;;;7.20;1.30;;;14.30;99.90;;;;;;4972288;28;20470;-73
2022/08/28 04:08:05;;;;;;;6.23;1.33;;;14.30;99.90;;;;;;4972743;28;20982;-73
2022/08/28 04:10:32;;;;;;;2.33;1.30;;;14.30;99.90;;;;;;4972405;28;20501;-73
2022/08/28 04:12:59;;;;;;;6.40;1.63;;;14.30;99.90;;;;;;4973550;28;20466;-73
2022/08/28 04:15:26;;;;;;;1.50;1.20;;;14.30;99.90;;;;;;4979495;23;20497;-73
2022/08/28 04:17:55;;;;;;;1.53;1.43;;;14.30;99.90;;;;;;4978356;28;20461;-73
2022/08/28 04:20:22;;;;;;;5.33;1.33;;;14.30;99.90;;;;;;4985975;28;20474;-73
2022/08/28 04:22:49;;;;;;;3.20;1.17;;;14.30;99.90;;;;;;4986217;28;20531;-73
2022/08/28 04:25:16;;;;;;;2.50;1.50;;;14.30;99.90;;;;;;4985991;28;20489;-73
2022/08/28 04:27:43;;;;;;;1.10;1.10;;;14.30;99.90;;;;;;4985284;28;20484;-73
2022/08/28 04:30:11;;;;;;;10.70;2.00;;;14.30;99.90;;;;;;4975851;28;20475;-73
2022/08/28 04:32:38;;;;;;;7.40;1.50;;;14.30;99.90;;;;;;4981220;28;20488;-73
2022/08/28 04:35:09;;;;;;;1.77;1.67;;;14.30;99.90;;;;;;4965472;28;20501;-73
2022/08/28 04:37:36;;;;;;;1.53;1.20;;;14.30;99.90;;;;;;4954317;28;20525;-73
2022/08/28 04:40:04;;;;;;;1.40;1.23;;;14.30;99.90;;;;;;4966669;28;20470;-73
2022/08/28 04:42:30;;;;;;;1.17;0.90;;;14.30;99.90;;;;;;4972938;28;20469;-74
2022/08/28 04:44:58;;;;;;;0.83;0.77;;;14.30;99.90;;;;;;4976706;28;20500;-73
2022/08/28 04:47:26;;;;;;;3.03;1.80;;;14.30;99.90;;;;;;4979941;28;20497;-73
2022/08/28 04:49:53;;;;;;;1.90;1.13;;;14.30;99.90;;;;;;4977813;28;20481;-74
2022/08/28 04:52:21;;;;;;;1.83;1.50;;;14.30;99.90;;;;;;4981056;28;20466;-72
2022/08/28 04:54:49;;;;;;;1.70;1.60;;;14.30;99.90;;;;;;4975772;28;20528;-73
2022/08/28 04:57:16;;;;;;;4.33;1.30;;;14.30;99.90;;;;;;4980005;28;20620;-74
2022/08/28 04:59:43;;;;;;;1.33;1.33;;;14.40;99.90;;;;;;4975455;28;20483;-73
2022/08/28 05:02:10;;;;;;;2.00;1.67;;;14.40;99.90;;;;;;4977250;28;20474;-73
2022/08/28 05:04:37;;;;;;;0.93;0.93;;;14.40;99.90;;;;;;4987299;28;20485;-73
2022/08/28 05:07:04;;;;;;;1.03;1.03;;;14.40;99.90;;;;;;4979888;28;20489;-72
2022/08/28 05:09:33;;;;;;;3.90;1.30;;;14.40;99.90;;;;;;4976571;28;20465;-73
2022/08/28 05:12:02;;;;;;;1.10;0.80;;;14.40;99.90;;;;;;4978963;28;20470;-73
2022/08/28 05:14:29;;;;;;;1.67;1.57;;;14.40;99.90;;;;;;4972342;28;20498;-72
2022/08/28 05:16:56;;;;;;;3.03;2.30;;;14.40;99.90;;;;;;4975185;28;20465;-74
2022/08/28 05:19:25;;;;;;;1.70;1.70;;;14.40;99.90;;;;;;4963311;28;20511;-73
2022/08/28 05:21:52;;;;;;;2.87;1.40;;;14.40;99.90;;;;;;4966333;28;20474;-73
2022/08/28 05:24:20;;;;;;;2.33;2.23;;;14.40;99.90;;;;;;4988826;28;20476;-73
2022/08/28 05:26:48;;;;;;;3.70;1.60;;;14.40;99.90;;;;;;4991806;28;20908;-73
2022/08/28 05:29:15;;;;;;;1.20;1.10;;;14.40;99.90;;;;;;4972838;28;20475;-73
2022/08/28 05:31:42;;;;;;;2.73;1.30;;;14.50;99.90;;;;;;4984378;28;20458;-74
2022/08/28 05:34:10;;;;;;;11.90;2.97;;;14.50;99.90;;;;;;4991313;28;20469;-73
2022/08/28 05:36:38;;;;;;;4.90;1.37;;;14.50;99.90;;;;;;4992023;28;20485;-73
2022/08/28 05:39:07;;;;;;;1.53;1.53;;;14.60;99.90;;;;;;4987689;28;20473;-73
2022/08/28 05:41:34;;;;;;;1.43;1.30;;;14.60;99.90;;;;;;4982863;28;20470;-73
2022/08/28 05:44:05;;;;;;;7.60;2.67;;;14.60;99.90;;;;;;4990886;28;20474;-73
2022/08/28 05:46:32;;;;;;;2.93;1.27;;;14.60;99.90;;;;;;4990834;28;20573;-73
2022/08/28 05:48:59;;;;;;;1.30;1.27;;;14.60;99.90;;;;;;4965487;28;20809;-73
2022/08/28 05:51:27;;;;;;;1.03;1.03;;;14.70;99.90;;;;;;4957540;28;20484;-73
2022/08/28 05:53:54;;;;;;;1.50;1.50;;;14.70;99.90;;;;;;4972559;28;20475;-73
2022/08/28 05:56:25;;;;;;;6.23;1.50;;;14.70;99.90;;;;;;4989312;28;20796;-73
2022/08/28 05:58:52;;;;;;;1.93;1.83;;;14.80;99.90;;;;;;4991354;28;20462;-73
2022/08/28 06:01:22;;;;;;;1.67;1.67;;;14.80;99.90;;;;;;4962148;28;20479;-73
2022/08/28 06:03:53;;;;;;;0.87;0.80;;;14.90;99.90;;;;;;4976391;28;20457;-73
2022/08/28 06:06:20;;;;;;;7.30;1.60;;;15.00;99.90;;;;;;4990989;28;20550;-73
2022/08/28 06:08:47;;;;;;;1.10;1.10;;;15.00;99.90;;;;;;4990892;28;21016;-73
2022/08/28 06:11:14;;;;;;;1.80;1.57;;;15.10;99.90;;;;;;4978476;28;20839;-73
2022/08/28 06:13:41;;;;;;;6.83;1.83;;;15.20;99.90;;;;;;4990677;28;20505;-73
2022/08/28 06:16:09;;;;;;;2.40;1.10;;;15.20;99.90;;;;;;4991048;28;20509;-73
2022/08/28 06:18:37;;;;;;;1.87;1.77;;;15.30;99.90;;;;;;4991037;28;20474;-74
2022/08/28 06:21:04;;;;;;;1.00;1.00;;;15.40;99.90;;;;;;4980843;28;20863;-74
2022/08/28 06:23:31;;;;;;;1.30;1.30;;;15.50;99.90;;;;;;4971630;28;20533;-74
2022/08/28 06:25:58;;;;;;;2.90;0.83;;;15.50;99.90;;;;;;4971702;28;20522;-74
2022/08/28 06:28:27;;;;;;;1.57;1.47;;;15.60;99.90;;;;;;4969214;28;20506;-74
2022/08/28 06:30:55;;;;;;;1.83;1.40;;;15.70;99.90;;;;;;4978063;28;20475;-73
2022/08/28 06:33:23;;;;;;;2.47;1.40;;;15.80;99.90;;;;;;4969221;28;20472;-72
2022/08/28 06:35:54;;;;;;;2.70;1.50;;;15.90;99.90;;;;;;4968181;28;20493;-72
2022/08/28 06:38:22;;;;;;;0.90;0.90;;;15.90;99.90;;;;;;4988668;28;20451;-72
2022/08/28 06:40:51;;;;;;;3.40;0.80;;;16.00;99.90;;;;;;4991163;28;20470;-72
2022/08/28 06:43:19;;;;;;;0.87;0.87;;;16.10;99.90;;;;;;4990292;28;20471;-73
2022/08/28 06:45:49;;;;;;;1.20;1.20;;;16.10;99.90;;;;;;4972183;28;20587;-73
2022/08/28 06:48:18;;;;;;;2.67;0.90;;;16.20;99.90;;;;;;4985734;28;20847;-73
2022/08/28 06:50:48;;;;;;;3.97;1.60;;;16.20;99.90;;;;;;4994600;28;20493;-72
2022/08/28 06:53:19;;;;;;;1.30;1.20;;;16.30;99.90;;;;;;4994604;28;20844;-73
2022/08/28 06:55:56;;;;;;;3.87;1.27;;;16.40;99.90;;;;;;4981406;28;20488;-73
2022/08/28 06:58:23;;;;;;;2.27;0.87;;;16.50;99.90;;;;;;4991953;28;20484;-73
2022/08/28 07:00:49;;;;;;;2.27;2.17;;;16.50;99.90;;;;;;4994947;28;20465;-73
2022/08/28 07:03:16;;;;;;;1.00;1.00;;;16.60;99.90;;;;;;4994478;28;20512;-73
2022/08/28 07:05:43;;;;;;;2.73;0.80;;;16.70;99.90;;;;;;4981482;28;20493;-73
2022/08/28 07:08:10;;;;;;;1.30;0.50;;;16.70;99.90;;;;;;4990269;28;20524;-73
2022/08/28 07:10:38;;;;;;;0.97;0.97;;;16.80;99.90;;;;;;4994509;28;20474;-73
2022/08/28 07:13:05;;;;;;;1.10;1.10;;;16.80;99.90;;;;;;4994011;28;20492;-73
2022/08/28 07:15:31;;;;;;;3.27;1.23;;;16.90;99.90;;;;;;4981903;28;20504;-72
2022/08/28 07:17:58;;;;;;;9.53;1.20;;;17.00;99.90;;;;;;4983075;28;20459;-74
2022/08/28 07:20:25;;;;;;;3.07;0.53;;;17.00;99.90;;;;;;4993705;28;20491;-72
2022/08/28 07:22:53;;;;;;;1.53;0.80;;;17.00;99.90;;;;;;4994400;28;20489;-72
2022/08/28 07:25:20;;;;;;;1.13;1.13;;;17.10;99.90;;;;;;4985151;28;20597;-72
2022/08/28 07:27:48;;;;;;;3.33;1.03;;;17.10;99.90;;;;;;4987240;28;20488;-72
2022/08/28 07:30:15;;;;;;;7.83;1.03;;;17.20;99.90;;;;;;4993746;28;20501;-73
2022/08/28 07:32:42;;;;;;;4.00;2.90;;;17.20;99.90;;;;;;4993983;28;20464;-73
2022/08/28 07:37:54;;;;;;;1.50;1.00;;;17.30;99.90;;;;;;4978974;28;20466;-74
2022/08/28 07:40:21;;;;;;;0.63;0.63;;;17.40;99.90;;;;;;4982184;28;20522;-73
2022/08/28 07:45:34;;;;;;;3.90;0.83;;;17.40;99.90;;;;;;4969619;28;20490;-74
2022/08/28 07:48:07;;;;;;;0.77;0.77;;;17.40;99.90;;;;;;4980011;28;20491;-73
2022/08/28 07:50:34;;;;;;;4.33;1.10;;;17.40;99.90;;;;;;4992881;28;20488;-72
2022/08/28 07:53:00;;;;;;;0.50;0.50;;;17.50;99.90;;;;;;4994133;28;20557;-72
2022/08/28 07:55:28;;;;;;;2.07;1.17;;;17.50;99.90;;;;;;4984627;28;20495;-73
2022/08/28 07:57:56;;;;;;;1.07;1.07;;;17.60;99.90;;;;;;4985433;28;20495;-74
2022/08/28 08:00:23;;;;;;;0.83;0.60;;;17.60;99.90;;;;;;4993530;28;20474;-73
2022/08/28 08:02:50;;;;;;;0.93;0.93;;;17.70;99.90;;;;;;4998595;28;20469;-72
2022/08/28 08:05:17;;;;;;;1.10;0.60;;;17.70;99.90;;;;;;4997558;28;20493;-72
2022/08/28 08:07:43;;;;;;;1.20;0.70;;;17.80;99.90;;;;;;4998329;28;20481;-73
2022/08/28 08:10:12;;;;;;;1.03;0.67;;;18.00;99.90;;;;;;5000842;28;20499;-73
2022/08/28 08:12:41;;;;;;;5.43;1.20;;;18.10;99.90;;;;;;4998946;28;20469;-73
2022/08/28 08:15:10;;;;;;;2.03;0.70;;;18.20;99.90;;;;;;4985993;28;20498;-73
2022/08/28 08:17:37;;;;;;;0.80;0.80;;;18.30;99.90;;;;;;4987573;28;20462;-73
2022/08/28 08:20:05;;;;;;;2.37;1.13;;;18.50;99.90;;;;;;4995238;28;20976;-73
2022/08/28 08:22:32;;;;;;;2.40;0.87;;;18.60;99.90;;;;;;4996964;28;20469;-73
2022/08/28 08:24:59;;;;;;;0.50;0.50;;;18.70;99.90;;;;;;4992932;28;20612;-73
2022/08/28 08:27:26;;;;;;;3.80;1.13;;;18.80;99.90;;;;;;4991816;28;20470;-73
2022/08/28 08:29:53;;;;;;;0.90;0.90;;;18.90;99.90;;;;;;4994262;28;20468;-73
2022/08/28 08:32:21;;;;;;;0.70;0.70;;;18.90;99.90;;;;;;4980275;28;20484;-73
2022/08/28 08:34:48;;;;;;;1.10;0.70;;;19.00;99.90;;;;;;4988764;28;20497;-72
2022/08/28 08:37:15;;;;;;;0.70;0.70;;;19.10;99.90;;;;;;4974009;28;21009;-73
2022/08/28 08:39:43;;;;;;;1.60;0.90;;;19.20;99.90;;;;;;4973103;28;20467;-73
2022/08/28 08:42:20;;;;;;;1.80;0.83;;;19.10;99.90;;;;;;4968854;28;20784;-74
2022/08/28 08:44:48;;;;;;;1.67;1.00;;;19.20;99.90;;;;;;4971122;28;20478;-73
2022/08/28 08:47:18;;;;;;;0.93;0.70;;;19.30;99.90;;;;;;4981402;28;20469;-73
2022/08/28 08:49:52;;;;;;;2.47;1.33;;;19.30;99.90;;;;;;4972711;28;20498;-73
2022/08/28 08:52:29;;;;;;;0.73;0.73;;;19.30;99.90;;;;;;4972048;28;20494;-73
2022/08/28 08:55:05;;;;;;;0.60;0.60;;;19.30;99.90;;;;;;4984261;28;20508;-73
2022/08/28 08:57:33;;;;;;;1.80;1.03;;;19.50;99.90;;;;;;4992966;28;20537;-73
2022/08/28 09:00:02;;;;;;;1.70;1.17;;;19.70;99.90;;;;;;4992416;28;20501;-73
2022/08/28 09:02:33;;;;;;;2.03;1.30;;;19.70;99.90;;;;;;4979050;28;20479;-73
2022/08/28 09:05:04;;;;;;;0.53;0.53;;;19.80;99.90;;;;;;4983919;28;20482;-73
2022/08/28 09:07:38;;;;;;;0.83;0.83;;;19.70;99.90;;;;;;4992732;28;20473;-73
2022/08/28 09:10:09;;;;;;;1.10;0.70;;;19.80;99.90;;;;;;4991667;28;20872;-73
2022/08/28 09:12:48;;;;;;;2.43;1.00;;;19.90;99.90;;;;;;4983136;28;20964;-74
2022/08/28 09:15:23;;;;;;;3.60;1.40;;;20.00;99.90;;;;;;4983559;28;20895;-74
2022/08/28 09:17:53;;;;;;;1.20;1.10;;;20.10;99.90;;;;;;4967316;28;20495;-73
2022/08/28 09:20:24;;;;;;;0.80;0.80;;;20.20;99.90;;;;;;4972102;28;20481;-73
2022/08/28 09:22:51;;;;;;;2.83;1.57;;;20.40;99.90;;;;;;4975570;28;20475;-74
2022/08/28 09:25:53;;;;;;;0.87;0.87;;;20.40;99.90;;;;;;4974196;28;20578;-73
2022/08/28 09:28:23;;;;;;;3.00;0.70;;;20.30;99.90;;;;;;4978252;28;20501;-75
2022/08/28 09:30:57;;;;;;;2.67;1.20;;;20.10;99.90;;;;;;4992678;28;20463;-74
2022/08/28 09:33:37;;;;;;;1.43;1.03;;;20.10;99.90;;;;;;4992239;28;20465;-74
2022/08/28 09:36:31;;;;;;;0.87;0.87;;;20.10;99.90;;;;;;4986543;28;20495;-73
2022/08/28 09:39:06;;;;;;;1.13;1.13;;;20.00;99.90;;;;;;4980501;28;20509;-73
2022/08/28 09:44:21;;;;;;;3.10;1.50;;;19.90;99.90;;;;;;4990662;28;20966;-73
2022/08/28 09:46:49;;;;;;;1.20;1.10;;;20.10;99.90;;;;;;4967891;28;20488;-74
2022/08/28 09:49:24;;;;;;;1.47;0.60;;;20.20;99.90;;;;;;4976426;28;20560;-74
2022/08/28 09:51:52;;;;;;;1.17;1.17;;;20.40;99.90;;;;;;4992097;28;20581;-74
2022/08/28 09:54:25;;;;;;;1.70;0.80;;;20.50;99.90;;;;;;4991389;28;20506;-73
2022/08/28 09:56:52;;;;;;;1.20;1.20;;;20.60;99.90;;;;;;4982140;28;21007;-73
2022/08/28 09:59:20;;;;;;;3.70;1.37;;;20.70;99.90;;;;;;4988241;28;20821;-74
2022/08/28 10:01:56;;;;;;;1.03;0.83;;;20.70;99.90;;;;;;4991496;28;20945;-73
2022/08/28 10:04:44;;;;;;;0.50;0.50;;;20.60;99.90;;;;;;4990775;28;20478;-74
2022/08/28 10:07:16;;;;;;;1.67;0.90;;;20.50;99.90;;;;;;4979459;28;20468;-73
2022/08/28 10:09:54;;;;;;;0.80;0.80;;;20.80;99.90;;;;;;4952238;28;20852;-73
2022/08/28 10:12:35;;;;;;;0.77;0.50;;;20.80;99.90;;;;;;4956451;28;20471;-72
2022/08/28 10:15:09;;;;;;;0.70;0.70;;;20.90;99.90;;;;;;4982471;28;20491;-72
2022/08/28 10:17:44;;;;;;;0.97;0.97;;;20.90;99.90;;;;;;4991921;28;20475;-72
2022/08/28 10:20:17;;;;;;;0.73;0.73;;;20.90;99.90;;;;;;4983906;28;20471;-72
2022/08/28 10:22:53;;;;;;;0.33;0.33;;;20.90;99.90;;;;;;4980450;28;20510;-72
2022/08/28 10:25:29;;;;;;;0.50;0.50;;;20.90;99.90;;;;;;4995343;28;20511;-72
2022/08/28 10:28:14;;;;;;;3.00;0.80;;;20.80;99.90;;;;;;4995576;28;20474;-72
2022/08/28 10:30:52;;;;;;;1.13;1.13;;;20.80;99.90;;;;;;4987605;28;20480;-72
2022/08/28 10:33:31;;;;;;;4.33;0.63;;;20.70;99.90;;;;;;4992509;28;20459;-73
2022/08/28 10:36:04;;;;;;;1.90;0.70;;;20.60;99.90;;;;;;4991486;28;20483;-72
2022/08/28 10:38:38;;;;;;;1.20;0.70;;;20.70;99.90;;;;;;4974464;28;20510;-72
2022/08/28 10:41:10;;;;;;;1.63;0.60;;;20.90;99.90;;;;;;4980588;28;20811;-73
2022/08/28 10:43:44;;;;;;;0.30;0.30;;;21.10;99.90;;;;;;4975544;28;20880;-74
2022/08/28 10:46:13;;;;;;;2.60;0.80;;;21.30;99.90;;;;;;5001144;28;20473;-72
2022/08/28 10:48:46;;;;;;;0.70;0.70;;;21.40;99.90;;;;;;4998989;28;20469;-71
2022/08/28 10:51:19;;;;;;;1.40;0.63;;;21.40;99.90;;;;;;5005088;28;20472;-72
2022/08/28 10:53:53;;;;;;;0.63;0.53;;;21.30;99.90;;;;;;4987121;28;20468;-72
2022/08/28 10:56:24;;;;;;;1.23;1.13;;;21.30;99.90;;;;;;4986580;28;20497;-73
2022/08/28 10:58:57;;;;;;;3.10;0.50;;;21.30;99.90;;;;;;4988932;28;20462;-73
2022/08/28 11:01:28;;;;;;;1.23;0.60;;;21.30;99.90;;;;;;4994981;28;20501;-74
2022/08/28 11:03:57;;;;;;;0.70;0.70;;;21.30;99.90;;;;;;4987308;28;20503;-73
2022/08/28 11:06:28;;;;;;;2.23;1.47;;;21.30;99.90;;;;;;4985861;28;20492;-73
2022/08/28 11:08:59;;;;;;;0.57;0.57;;;21.50;99.90;;;;;;4994528;28;20498;-73
2022/08/28 11:11:43;;;;;;;0.30;0.30;;;21.60;99.90;;;;;;4994766;28;20882;-73
2022/08/28 11:14:10;;;;;;;0.60;0.60;;;21.70;99.90;;;;;;4986882;28;20549;-73
2022/08/28 11:16:40;;;;;;;1.03;0.80;;;21.90;99.90;;;;;;4970823;28;20505;-73
2022/08/28 11:19:21;;;;;;;0.37;0.37;;;22.10;99.90;;;;;;4974274;28;20467;-73
2022/08/28 11:21:52;;;;;;;0.70;0.70;;;22.10;99.90;;;;;;4975049;28;20477;-73
2022/08/28 11:24:42;;;;;;;3.60;1.03;;;22.00;99.90;;;;;;4980741;28;20813;-73
2022/08/28 11:27:23;;;;;;;0.97;0.97;;;22.00;99.90;;;;;;4990195;28;20957;-72
2022/08/28 11:30:18;;;;;;;0.70;0.70;;;21.90;99.90;;;;;;4993846;28;20504;-74
2022/08/28 11:33:05;;;;;;;0.40;0.40;;;21.90;99.90;;;;;;4981067;28;20842;-73
2022/08/28 11:35:48;;;;;;;0.87;0.87;;;21.70;99.90;;;;;;4982942;28;20497;-73
2022/08/28 11:38:52;;;;;;;1.47;0.97;;;21.50;99.90;;;;;;4993750;28;20467;-74
2022/08/28 11:41:25;;;;;;;0.50;0.50;;;21.40;99.90;;;;;;4993578;28;20474;-74
2022/08/28 11:44:23;;;;;;;0.63;0.63;;;21.20;99.90;;;;;;4984834;28;20475;-73
2022/08/28 11:46:51;;;;;;;1.17;0.63;;;21.10;99.90;;;;;;4980424;28;20586;-73
2022/08/28 11:49:45;;;;;;;0.43;0.43;;;21.30;99.90;;;;;;4993258;28;20491;-73
2022/08/28 11:52:47;;;;;;;1.27;0.53;;;21.60;99.90;;;;;;4958788;28;20475;-73
2022/08/28 11:55:24;;;;;;;0.77;0.77;;;21.70;99.90;;;;;;4970625;28;20495;-72
2022/08/28 11:58:05;;;;;;;1.20;0.70;;;21.70;99.90;;;;;;4954886;28;20470;-73
2022/08/28 12:00:49;;;;;;;0.67;0.67;;;21.60;99.90;;;;;;4953878;28;20477;-72
2022/08/28 12:03:24;;;;;;;0.47;0.47;;;21.50;99.90;;;;;;4956289;28;20629;-72
2022/08/28 12:05:55;;;;;;;0.40;0.40;;;21.40;99.90;;;;;;4974771;28;20505;-73
2022/08/28 12:09:04;;;;;;;0.40;0.40;;;21.30;99.90;;;;;;4981769;28;20467;-72
2022/08/28 12:11:54;;;;;;;1.03;0.60;;;21.30;99.90;;;;;;4978400;28;20485;-72
2022/08/28 12:15:01;;;;;;;4.80;0.90;;;21.40;99.90;;;;;;4986360;28;20463;-73
2022/08/28 12:17:47;;;;;;;1.23;0.70;;;21.50;99.90;;;;;;4991400;28;20466;-73
2022/08/28 12:20:22;;;;;;;2.00;0.90;;;21.40;99.90;;;;;;4992761;28;20468;-72
2022/08/28 12:22:52;;;;;;;0.50;0.50;;;21.50;99.90;;;;;;4992798;28;20525;-72
2022/08/28 12:25:29;;;;;;;2.13;0.97;;;21.40;99.90;;;;;;4980811;28;20511;-73
2022/08/28 12:27:57;;;;;;;0.80;0.60;;;21.50;99.90;;;;;;4993191;28;20864;-73
2022/08/28 12:30:29;;;;;;;1.60;1.00;;;21.40;99.90;;;;;;4992194;28;20498;-72
2022/08/28 12:33:06;;;;;;;6.93;1.30;;;21.40;99.90;;;;;;4991527;28;20972;-72
2022/08/28 12:35:32;;;;;;;1.50;0.60;;;21.40;99.90;;;;;;4982381;28;20477;-72
2022/08/28 12:38:02;;;;;;;0.83;0.83;;;21.40;99.90;;;;;;4970405;28;20476;-73
2022/08/28 12:40:31;;;;;;;0.80;0.80;;;21.40;99.90;;;;;;4973162;28;20459;-73
2022/08/28 12:43:01;;;;;;;1.20;0.60;;;21.30;99.90;;;;;;4972503;28;20467;-72
2022/08/28 12:45:31;;;;;;;1.17;0.50;;;21.20;99.90;;;;;;4979535;28;20908;-72
2022/08/28 12:48:04;;;;;;;2.57;0.80;;;21.30;99.90;;;;;;4992666;28;20464;-72
2022/08/28 12:50:34;;;;;;;0.60;0.60;;;21.40;99.90;;;;;;4991917;28;20495;-73
2022/08/28 12:53:04;;;;;;;0.90;0.90;;;21.60;99.90;;;;;;4991586;28;20482;-72
2022/08/28 12:55:31;;;;;;;2.57;0.97;;;21.60;99.90;;;;;;4982564;28;20485;-72
2022/08/28 12:57:58;;;;;;;0.77;0.77;;;21.60;99.90;;;;;;4986795;28;20471;-72
2022/08/28 13:00:30;;;;;;;0.87;0.73;;;21.50;99.90;;;;;;4983588;28;20464;-72
2022/08/28 13:02:59;;;;;;;1.87;1.80;;;21.40;99.90;;;;;;4991840;28;20469;-72
2022/08/28 13:05:33;;;;;;;0.60;0.60;;;21.30;99.90;;;;;;4980753;28;20545;-72
2022/08/28 13:08:03;;;;;;;0.63;0.63;;;21.20;99.90;;;;;;4992106;28;20475;-72
2022/08/28 13:10:33;;;;;;;3.13;1.00;;;21.30;99.90;;;;;;4991919;28;20499;-72
2022/08/28 13:13:02;;;;;;;1.23;0.80;;;21.30;99.90;;;;;;4991721;28;20471;-73
2022/08/28 13:15:54;;;;;;;0.93;0.77;;;21.30;99.90;;;;;;4968121;28;20868;-73
2022/08/28 13:18:43;;;;;;;1.03;1.03;;;21.40;99.90;;;;;;4952642;28;20464;-72
2022/08/28 13:21:32;;;;;;;2.00;1.30;;;21.50;99.90;;;;;;4991578;28;20499;-73
2022/08/28 13:24:21;;;;;;;0.30;0.30;;;21.60;99.90;;;;;;4987813;28;20504;-73
2022/08/28 13:26:49;;;;;;;2.40;1.00;;;21.70;99.90;;;;;;4980117;28;20488;-73
2022/08/28 13:29:20;;;;;;;0.40;0.40;;;21.90;99.90;;;;;;4988086;28;20838;-73
2022/08/28 13:31:58;;;;;;;1.10;0.60;;;22.10;99.90;;;;;;4991930;28;20472;-74
2022/08/28 13:34:28;;;;;;;1.13;1.13;;;22.20;99.90;;;;;;4990989;28;20481;-73
2022/08/28 13:36:58;;;;;;;0.50;0.50;;;22.30;99.90;;;;;;4980078;28;20576;-73
2022/08/28 13:39:26;;;;;;;1.20;0.90;;;22.30;99.90;;;;;;4979741;28;20575;-74
2022/08/28 13:41:55;;;;;;;1.03;0.57;;;22.20;99.90;;;;;;4985349;28;20469;-73
2022/08/28 13:44:31;;;;;;;1.60;1.60;;;22.20;99.90;;;;;;4990959;28;20515;-73
2022/08/28 13:46:59;;;;;;;0.70;0.70;;;22.30;99.90;;;;;;4975786;28;20465;-73
2022/08/28 13:49:27;;;;;;;2.63;0.70;;;22.40;99.90;;;;;;4989427;28;20487;-74
2022/08/28 13:51:56;;;;;;;4.50;0.97;;;22.40;99.90;;;;;;4991710;28;20847;-74
2022/08/28 13:54:22;;;;;;;0.70;0.50;;;22.40;99.90;;;;;;4991287;28;20476;-74
2022/08/28 13:56:50;;;;;;;1.00;1.00;;;22.30;99.90;;;;;;4980149;28;20499;-73
2022/08/28 13:59:17;;;;;;;2.10;0.70;;;22.40;99.90;;;;;;4987768;28;20491;-73
2022/08/28 14:04:31;;;;;;;1.90;1.00;;;22.50;99.90;;;;;;4982762;28;20460;-74
2022/08/28 14:06:59;;;;;;;1.07;0.80;;;22.30;99.90;;;;;;4978692;28;20561;-73
2022/08/28 14:09:26;;;;;;;1.70;0.90;;;22.20;99.90;;;;;;4989099;28;20495;-73
2022/08/28 14:11:54;;;;;;;1.40;0.80;;;22.20;99.90;;;;;;4991443;28;20500;-72
2022/08/28 14:14:21;;;;;;;0.90;0.90;;;22.10;99.90;;;;;;4990492;28;20952;-73
2022/08/28 14:16:51;;;;;;;0.93;0.77;;;22.00;99.90;;;;;;4980674;28;21017;-73
2022/08/28 14:19:18;;;;;;;1.23;0.80;;;21.90;99.90;;;;;;4988021;28;20461;-72
2022/08/28 14:21:46;;;;;;;4.47;1.50;;;21.80;99.90;;;;;;4991555;28;20468;-73
2022/08/28 14:24:13;;;;;;;1.43;1.40;;;21.80;99.90;;;;;;4990758;28;20494;-72
2022/08/28 14:26:41;;;;;;;2.97;1.13;;;21.90;99.90;;;;;;4981895;28;20497;-73
2022/08/28 14:29:10;;;;;;;0.83;0.83;;;21.80;99.90;;;;;;4986471;28;20562;-73
2022/08/28 14:31:39;;;;;;;1.33;1.23;;;21.70;99.90;;;;;;4991281;28;20459;-74
2022/08/28 14:34:07;;;;;;;0.93;0.87;;;21.70;99.90;;;;;;4990520;28;20563;-73
2022/08/28 14:36:35;;;;;;;1.00;1.00;;;21.60;99.90;;;;;;4977966;28;20487;-74
2022/08/28 14:39:06;;;;;;;0.77;0.77;;;21.60;99.90;;;;;;4976330;28;20463;-73
2022/08/28 14:41:34;;;;;;;2.77;1.20;;;21.60;99.90;;;;;;4971793;28;20460;-74
2022/08/28 14:44:02;;;;;;;1.07;0.93;;;21.50;99.90;;;;;;4971173;28;20464;-74
2022/08/28 14:46:30;;;;;;;0.60;0.60;;;21.40;99.90;;;;;;4975889;28;20494;-74
2022/08/28 14:48:59;;;;;;;1.13;0.80;;;21.40;99.90;;;;;;4985499;28;20932;-68
2022/08/28 14:51:26;;;;;;;0.67;0.67;;;21.50;99.90;;;;;;4990724;28;20501;-68
2022/08/28 14:53:53;;;;;;;1.27;1.27;;;21.60;99.90;;;;;;4991265;28;20471;-69
2022/08/28 14:56:22;;;;;;;0.80;0.80;;;21.60;99.90;;;;;;4985068;28;20503;-68
2022/08/28 14:58:49;;;;;;;0.50;0.50;;;21.60;99.90;;;;;;4983933;28;20497;-73
2022/08/28 15:01:24;;;;;;;1.10;1.00;;;21.70;99.90;;;;;;4991135;28;20952;-73
2022/08/28 15:03:51;;;;;;;0.83;0.63;;;21.80;99.90;;;;;;4990703;28;20498;-73
2022/08/28 15:06:18;;;;;;;0.83;0.83;;;21.70;99.90;;;;;;4967440;28;20508;-72
2022/08/28 15:08:45;;;;;;;0.63;0.30;;;21.80;99.90;;;;;;4985500;28;20468;-73
2022/08/28 15:11:14;;;;;;;2.30;1.03;;;21.90;99.90;;;;;;4994657;28;20487;-73
2022/08/28 15:13:43;;;;;;;3.40;1.23;;;22.10;99.90;;;;;;4993741;28;21028;-73
2022/08/28 15:16:11;;;;;;;1.00;1.00;;;22.00;99.90;;;;;;4989523;28;20503;-74
2022/08/28 15:18:38;;;;;;;1.33;0.87;;;21.90;99.90;;;;;;4985938;28;20471;-74
2022/08/28 15:21:06;;;;;;;3.00;1.47;;;21.70;99.90;;;;;;4994153;28;20463;-73
2022/08/28 15:23:33;;;;;;;0.77;0.70;;;21.50;99.90;;;;;;4994055;28;20851;-73
2022/08/28 15:26:00;;;;;;;1.20;1.20;;;21.40;99.90;;;;;;4988592;28;20502;-73
2022/08/28 15:28:27;;;;;;;1.50;0.90;;;21.40;99.90;;;;;;4985464;28;20524;-74
2022/08/28 15:30:55;;;;;;;0.60;0.60;;;21.30;99.90;;;;;;4993719;28;20487;-74
2022/08/28 15:33:22;;;;;;;0.97;0.97;;;21.20;99.90;;;;;;4993934;28;20571;-73
2022/08/28 15:35:49;;;;;;;0.90;0.90;;;21.20;99.90;;;;;;4989371;28;21002;-73
2022/08/28 15:38:15;;;;;;;1.33;1.00;;;21.30;99.90;;;;;;4985677;28;20821;-73
2022/08/28 15:43:26;;;;;;;1.63;1.30;;;21.30;99.90;;;;;;4993087;28;20450;-73
2022/08/28 15:45:54;;;;;;;0.73;0.60;;;21.30;99.90;;;;;;4989699;28;20490;-74
2022/08/28 15:48:21;;;;;;;1.93;0.97;;;21.40;99.90;;;;;;4985232;28;20467;-74
2022/08/28 15:50:48;;;;;;;0.63;0.63;;;21.50;99.90;;;;;;4993533;28;20796;-72
2022/08/28 15:53:15;;;;;;;1.00;1.00;;;21.40;99.90;;;;;;4993762;28;20474;-73
2022/08/28 15:55:41;;;;;;;0.50;0.50;;;21.40;99.90;;;;;;4990101;28;20487;-74
2022/08/28 15:58:08;;;;;;;0.57;0.57;;;21.30;99.90;;;;;;4985650;28;20458;-73
2022/08/28 16:00:35;;;;;;;0.60;0.60;;;21.10;99.90;;;;;;4993272;28;20459;-73
2022/08/28 16:03:04;;;;;;;0.93;0.80;;;20.90;99.90;;;;;;4993382;28;21000;-74
2022/08/28 16:05:35;;;;;;;0.80;0.80;;;20.80;99.90;;;;;;4979660;28;20496;-73
2022/08/28 16:08:02;;;;;;;0.77;0.77;;;20.80;99.90;;;;;;4985160;28;20465;-74
2022/08/28 16:10:29;;;;;;;1.13;0.90;;;20.90;99.90;;;;;;4978813;28;20960;-73
2022/08/28 16:12:56;;;;;;;1.00;1.00;;;20.80;99.90;;;;;;4984237;28;20462;-73
2022/08/28 16:15:23;;;;;;;0.60;0.60;;;20.80;99.90;;;;;;4981941;28;20495;-73
2022/08/28 16:17:50;;;;;;;0.93;0.90;;;20.90;99.90;;;;;;5010723;23;20507;-75
2022/08/28 16:20:18;;;;;;;1.13;0.50;;;20.80;99.90;;;;;;4973078;28;20540;-76
2022/08/28 16:22:45;;;;;;;2.83;0.90;;;20.80;99.90;;;;;;4973951;28;20468;-74
2022/08/28 16:25:12;;;;;;;0.90;0.90;;;20.80;99.90;;;;;;4979226;28;20818;-74
2022/08/28 16:27:39;;;;;;;0.70;0.70;;;20.80;99.90;;;;;;4985429;28;20518;-75
2022/08/28 16:30:07;;;;;;;0.83;0.83;;;20.80;99.90;;;;;;4992828;28;20470;-74
2022/08/28 16:32:34;;;;;;;0.63;0.60;;;20.80;99.90;;;;;;4993644;28;20571;-75
2022/08/28 16:35:01;;;;;;;0.80;0.80;;;20.70;99.90;;;;;;4979427;28;20471;-74
2022/08/28 16:37:30;;;;;;;2.10;0.83;;;20.60;99.90;;;;;;4991715;28;20486;-75
2022/08/28 16:39:56;;;;;;;1.60;0.87;;;20.50;99.90;;;;;;4992851;28;20492;-75
2022/08/28 16:42:23;;;;;;;1.23;1.03;;;20.40;99.90;;;;;;4993607;28;20518;-74
2022/08/28 16:44:55;;;;;;;1.13;0.73;;;20.30;99.90;;;;;;4979536;28;20485;-74
2022/08/28 16:47:21;;;;;;;1.33;0.87;;;20.20;99.90;;;;;;4984567;28;20832;-75
2022/08/28 16:49:49;;;;;;;0.47;0.47;;;20.10;99.90;;;;;;4992478;28;20470;-75
2022/08/28 16:52:16;;;;;;;0.77;0.77;;;20.00;99.90;;;;;;4992756;28;20490;-75
2022/08/28 16:54:44;;;;;;;1.60;0.77;;;19.90;99.90;;;;;;4983952;28;20544;-74
2022/08/28 16:57:11;;;;;;;1.03;0.77;;;19.80;99.90;;;;;;4977065;28;20459;-74
2022/08/28 16:59:38;;;;;;;0.80;0.80;;;19.80;99.90;;;;;;4972671;28;20951;-73
2022/08/28 17:02:04;;;;;;;3.93;0.90;;;19.70;99.90;;;;;;4973541;28;20466;-74
2022/08/28 17:04:31;;;;;;;0.90;0.77;;;19.70;99.90;;;;;;4978726;28;20542;-74
2022/08/28 17:06:58;;;;;;;1.37;0.50;;;19.70;99.90;;;;;;4993089;28;20458;-74
2022/08/28 17:09:25;;;;;;;2.30;0.87;;;19.70;99.90;;;;;;4999598;28;20860;-75
2022/08/28 17:11:53;;;;;;;2.73;1.20;;;19.60;99.90;;;;;;5001226;28;20485;-74
2022/08/28 17:14:20;;;;;;;1.10;0.97;;;19.60;99.90;;;;;;4980502;28;20472;-73
2022/08/28 17:16:47;;;;;;;0.90;0.90;;;19.50;99.90;;;;;;4982070;28;20470;-73
2022/08/28 17:19:14;;;;;;;0.63;0.63;;;19.50;99.90;;;;;;4980763;28;20491;-74